Flight Track Log - Related Links

Times and Time Zones

All times are in EDT time to prevent confusion due to time zone crossing. See the EGF4169 flight status page for this flight to view local times or setup timezone preferences in your user account.

Time Position Orientation Groundspeed Altitude Reporting Facility
EDT Latitude Longitude Course Direction KTS MPH feet Rate Location/Type
Tue 03:51:10 PM 42.2653 -85.5481 294° West 177 204 2,500  Level Chicago Center
Tue 03:52:12 PM 42.3206 -85.5244 18° North 239 275 5,200 3,194 Climbing Chicago Center
Tue 03:53:00 PM 42.3231 -85.7795 304° West  Level FlightAware Approximate
Tue 03:53:14 PM 42.3611 -85.6125 302° West 240 276 9,100  Level Chicago Center
Tue 03:54:00 PM 42.3521 -85.8542 304° West  Level FlightAware Approximate
Tue 03:54:16 PM 42.3786 -85.7044 284° West 247 284 10,000  Level Chicago Center
Tue 03:55:00 PM 42.3874 -85.9268 298° West  Level FlightAware Approximate
Tue 03:55:18 PM 42.4022 -85.8064 287° West 272 313 10,300  Level Chicago Center
Tue 03:56:00 PM 42.4178 -86.0033 294° West  Level FlightAware Approximate
Tue 03:56:20 PM 42.4258 -85.9097 287° West 284 327 11,700  Level Chicago Center
Tue 03:57:22 PM 42.4469 -86.0114 286° West 280 322 13,200 1,113 Climbing Chicago Center
Tue 03:58:24 PM 42.4658 -86.1108 284° West 273 314 14,000 387 Climbing Chicago Center
Tue 03:59:26 PM 42.4903 -86.2275 286° West 268 308 14,000  Level Chicago Center
Tue 04:00:29 PM 42.5108 -86.3236 286° West 267 307 14,000  Level Chicago Center
Tue 04:01:31 PM 42.5317 -86.4192 287° West 265 305 14,000  Level Chicago Center
Tue 04:02:33 PM 42.5525 -86.5139 287° West 263 303 14,000 -387 Level Chicago Center
Tue 04:03:35 PM 42.5728 -86.6094 286° West 262 302 13,200 -774 Descending Chicago Center
Tue 04:04:37 PM 42.5972 -86.7022 290° West 263 303 12,400 -774 Descending Chicago Center
Tue 04:05:39 PM 42.5833 -86.8103 260° West 269 310 11,600 -726 Descending Chicago Center
Tue 04:06:41 PM 42.5456 -86.8994 240° Southwest 273 314 10,900 -774 Descending Chicago Center
Tue 04:07:43 PM 42.5083 -86.9867 240° Southwest 269 310 10,000 -919 Descending Chicago Center
Tue 04:08:45 PM 42.4700 -87.0728 239° Southwest 269 310 9,000 -532 Descending Chicago Center
Tue 04:09:47 PM 42.4386 -87.1622 245° Southwest 264 304 8,900 -48 Descending Chicago Center
Tue 04:10:49 PM 42.4150 -87.2575 251° West 268 308 8,900 -528 Level Chicago Center
Tue 04:11:52 PM 42.3389 -87.3322 216° Southwest 285 328 7,800 -1,008 Descending Chicago Center
Tue 04:12:54 PM 42.2686 -87.3917 212° Southwest 282 325 6,800 -871 Descending Chicago Center
Tue 04:13:56 PM 42.2100 -87.4428 213° Southwest 256 295 6,000 -774 Descending Chicago Center
Tue 04:14:58 PM 42.1486 -87.4939 212° Southwest 260 299 5,200 -677 Descending Chicago Center
Tue 04:16:00 PM 42.0883 -87.5419 211° Southwest 257 296 4,600 -629 Descending Chicago Center
Tue 04:17:02 PM 42.0481 -87.6078 231° Southwest 242 278 3,900 -774 Descending Chicago Center
Tue 04:18:04 PM 42.0181 -87.7003 246° West 231 266 3,000 -871 Descending Chicago Center

Login

Don't have an account? Register now (free) for customized features, flight alerts, and more!